Glendive, MT

12:21 PM MDT on August 23, 2014 (GMT -0600)
Dawson Community | Change Station
CLOSE
Current Station
Airport
Location: Glendive,
Elevation: 2457 ft
Nearby Weather Stations

Elev 2457 ft 47.14 °N, 104.81 °W | Updated 6 minutes ago

Overcast
Overcast
57 °F
Feels Like 57 °F
N
17
Wind Variable Wind from NE

Today
High -- | Low -- °F
--% Chance of Precip.
Yesterday
High -- | Low -- °F
Precip. -- in
6:06 AM 7:55 PM
Waning Crescent, 3% visible
Pressure 29.94 in
Visibility 10.0 miles
Clouds Overcast 800 ft
Dew Point 55 °F
Humidity 94%
Rainfall 1.43 in
Snow Depth Not available.
UV 3 out of 12
Pollen .90 out of 12
Air Quality Not available.
Flu Activity Not available.
METAR KGDV 231815Z AUTO 04015KT 10SM OVC008 14/13 A2994 RMK AO1 P0001

More Conditions Fewer Conditions

Pressure 29.94 in
Visibility 10.0 miles
Clouds Overcast 800 ft
Dew Point 55 °F
Humidity 94%
Rainfall 1.43 in
Snow Depth Not available.
UV 3 out of 12
Pollen .90 out of 12
Air Quality Not available.
Flu Activity Not available.
METAR KGDV 231815Z AUTO 04015KT 10SM OVC008 14/13 A2994 RMK AO1 P0001

More Conditions Fewer Conditions

10-Day Weather Forecast

Almanac

Astronomy

Aug. 23, 2014 Rise Set
Actual Time 6:06 AM MDT 7:55 PM MDT
Civil Twilight 5:33 AM MDT 8:27 PM MDT
Nautical Twilight 4:53 AM MDT 9:07 PM MDT
Astronomical Twilight 4:10 AM MDT 9:51 PM MDT
Moon 4:22 AM MDT 6:42 PM MDT
Length of Visible Light 14h 54m
Length of Day
13h 49m
Tomorrow will be 3m 10s shorter.
Waning Crescent, 3% of the Moon is Illuminated
Today
Waning Crescent
Aug 25
New
Sep 2
First Quarter
Sep 8
Full
Sep 15
Last Quarter

Today's Extremes

State Highs State Lows

Community

WunderPhotos

Upload Photos

1,746,554 photos uploaded!

WunderBlogs® & News

By Dr. Jeff Masters
Director of Meteorology, Weather Underground
By Kari Strenfel
Meteorologist, Weather Underground
By Christopher C. Burt
Weather Historian, Weather Underground
August 23, 2014
August 23, 2014
August 23, 2014

Nearby

Snow Depth

Station Depth Elevation
Crystal Lake 1 in 6050 ft
Cole Creek 1 in 7850 ft
Burnt Mountain 0 in 5880 ft
Daisy Peak 0 in 7600 ft
Spur Park 0 in 8100 ft

Earthquake Activity

City Distance Mag. Time & Date
No recent earthquake activity has been reported nearby.
Minimum magnitude displayed is 2.5.

Coastal Water Temperatures

Place Temperature
No Stations Reporting

Nearby Weather Stations